sensor_id;sensor_type;location;lat;lon;timestamp;temperature;humidity
31046;DHT22;17711;54.018;9.300;2022-09-06T00:01:15;17.60;95.30
31046;DHT22;17711;54.018;9.300;2022-09-06T00:03:45;17.40;97.00
31046;DHT22;17711;54.018;9.300;2022-09-06T00:06:15;17.40;97.50
31046;DHT22;17711;54.018;9.300;2022-09-06T00:08:45;17.40;97.50
31046;DHT22;17711;54.018;9.300;2022-09-06T00:11:15;17.40;97.50
31046;DHT22;17711;54.018;9.300;2022-09-06T00:13:49;17.40;97.00
31046;DHT22;17711;54.018;9.300;2022-09-06T00:16:19;17.30;97.20
31046;DHT22;17711;54.018;9.300;2022-09-06T00:18:55;17.30;98.90
31046;DHT22;17711;54.018;9.300;2022-09-06T00:21:27;17.30;97.80
31046;DHT22;17711;54.018;9.300;2022-09-06T00:23:56;17.20;98.40
31046;DHT22;17711;54.018;9.300;2022-09-06T00:26:25;17.20;99.00
31046;DHT22;17711;54.018;9.300;2022-09-06T00:28:55;17.20;99.30
31046;DHT22;17711;54.018;9.300;2022-09-06T00:31:25;17.10;99.40
31046;DHT22;17711;54.018;9.300;2022-09-06T00:33:55;17.10;99.70
31046;DHT22;17711;54.018;9.300;2022-09-06T00:36:23;17.10;99.90
31046;DHT22;17711;54.018;9.300;2022-09-06T00:38:52;17.10;99.90
31046;DHT22;17711;54.018;9.300;2022-09-06T00:41:21;17.00;99.90
31046;DHT22;17711;54.018;9.300;2022-09-06T00:43:50;17.00;99.90
31046;DHT22;17711;54.018;9.300;2022-09-06T00:46:23;17.00;99.90
31046;DHT22;17711;54.018;9.300;2022-09-06T00:48:57;17.00;99.90
31046;DHT22;17711;54.018;9.300;2022-09-06T00:51:28;17.00;99.90
31046;DHT22;17711;54.018;9.300;2022-09-06T00:53:58;17.00;99.90
31046;DHT22;17711;54.018;9.300;2022-09-06T00:56:30;17.00;99.90
31046;DHT22;17711;54.018;9.300;2022-09-06T00:58:59;17.00;99.90
31046;DHT22;17711;54.018;9.300;2022-09-06T01:01:30;17.00;99.90
31046;DHT22;17711;54.018;9.300;2022-09-06T01:04:00;17.00;99.90
31046;DHT22;17711;54.018;9.300;2022-09-06T01:06:34;17.00;99.90
31046;DHT22;17711;54.018;9.300;2022-09-06T01:09:14;16.90;99.90
31046;DHT22;17711;54.018;9.300;2022-09-06T01:12:02;16.80;99.90
31046;DHT22;17711;54.018;9.300;2022-09-06T01:14:37;16.80;99.90
31046;DHT22;17711;54.018;9.300;2022-09-06T01:17:16;16.90;99.90
31046;DHT22;17711;54.018;9.300;2022-09-06T01:23:15;16.80;99.90
31046;DHT22;17711;54.018;9.300;2022-09-06T01:25:54;16.80;99.90
31046;DHT22;17711;54.018;9.300;2022-09-06T01:28:32;16.80;99.90
31046;DHT22;17711;54.018;9.300;2022-09-06T01:31:16;16.80;99.90
31046;DHT22;17711;54.018;9.300;2022-09-06T01:33:53;16.80;99.90
31046;DHT22;17711;54.018;9.300;2022-09-06T01:36:27;16.80;99.90
31046;DHT22;17711;54.018;9.300;2022-09-06T01:38:57;16.80;99.90
31046;DHT22;17711;54.018;9.300;2022-09-06T01:41:27;16.80;99.90
31046;DHT22;17711;54.018;9.300;2022-09-06T01:43:57;16.80;99.90
31046;DHT22;17711;54.018;9.300;2022-09-06T01:46:30;16.80;99.90
31046;DHT22;17711;54.018;9.300;2022-09-06T01:49:22;16.80;99.90
31046;DHT22;17711;54.018;9.300;2022-09-06T01:52:07;16.80;99.90
31046;DHT22;17711;54.018;9.300;2022-09-06T01:54:49;16.80;99.90
31046;DHT22;17711;54.018;9.300;2022-09-06T01:57:31;16.70;99.90
31046;DHT22;17711;54.018;9.300;2022-09-06T02:00:08;16.70;99.90
31046;DHT22;17711;54.018;9.300;2022-09-06T02:02:46;16.80;99.90
31046;DHT22;17711;54.018;9.300;2022-09-06T02:05:21;16.70;99.90
31046;DHT22;17711;54.018;9.300;2022-09-06T02:07:56;16.70;99.90
31046;DHT22;17711;54.018;9.300;2022-09-06T02:10:28;16.70;99.90
31046;DHT22;17711;54.018;9.300;2022-09-06T02:12:59;16.70;99.90
31046;DHT22;17711;54.018;9.300;2022-09-06T02:15:32;16.70;99.90
31046;DHT22;17711;54.018;9.300;2022-09-06T02:18:05;16.70;99.90
31046;DHT22;17711;54.018;9.300;2022-09-06T02:20:39;16.70;99.90
31046;DHT22;17711;54.018;9.300;2022-09-06T02:23:09;16.70;99.90
31046;DHT22;17711;54.018;9.300;2022-09-06T02:25:41;16.70;99.90
31046;DHT22;17711;54.018;9.300;2022-09-06T02:28:11;16.60;99.90
31046;DHT22;17711;54.018;9.300;2022-09-06T02:30:44;16.60;99.90
31046;DHT22;17711;54.018;9.300;2022-09-06T02:33:18;16.70;99.90
31046;DHT22;17711;54.018;9.300;2022-09-06T02:35:50;16.70;99.90
31046;DHT22;17711;54.018;9.300;2022-09-06T02:38:21;16.70;99.90
31046;DHT22;17711;54.018;9.300;2022-09-06T02:40:51;16.70;99.90
31046;DHT22;17711;54.018;9.300;2022-09-06T02:43:21;16.60;99.90
31046;DHT22;17711;54.018;9.300;2022-09-06T02:45:51;16.60;99.90
31046;DHT22;17711;54.018;9.300;2022-09-06T02:48:20;16.60;99.90
31046;DHT22;17711;54.018;9.300;2022-09-06T02:50:49;16.60;99.90
31046;DHT22;17711;54.018;9.300;2022-09-06T02:53:19;16.60;99.90
31046;DHT22;17711;54.018;9.300;2022-09-06T02:55:48;16.60;99.90
31046;DHT22;17711;54.018;9.300;2022-09-06T02:58:16;16.60;99.90
31046;DHT22;17711;54.018;9.300;2022-09-06T03:00:45;16.60;99.90
31046;DHT22;17711;54.018;9.300;2022-09-06T03:03:15;16.60;99.90
31046;DHT22;17711;54.018;9.300;2022-09-06T03:05:46;16.60;99.90
31046;DHT22;17711;54.018;9.300;2022-09-06T03:08:16;16.60;99.90
31046;DHT22;17711;54.018;9.300;2022-09-06T03:10:47;16.60;99.90
31046;DHT22;17711;54.018;9.300;2022-09-06T03:13:17;16.50;99.90
31046;DHT22;17711;54.018;9.300;2022-09-06T03:15:49;16.60;99.90
31046;DHT22;17711;54.018;9.300;2022-09-06T03:18:20;16.60;99.90
31046;DHT22;17711;54.018;9.300;2022-09-06T03:20:49;16.60;99.90
31046;DHT22;17711;54.018;9.300;2022-09-06T03:23:18;16.60;99.90
31046;DHT22;17711;54.018;9.300;2022-09-06T03:25:48;16.50;99.90
31046;DHT22;17711;54.018;9.300;2022-09-06T03:28:17;16.50;99.90
31046;DHT22;17711;54.018;9.300;2022-09-06T03:30:47;16.40;99.90
31046;DHT22;17711;54.018;9.300;2022-09-06T03:33:20;16.50;99.90
31046;DHT22;17711;54.018;9.300;2022-09-06T03:35:52;16.50;99.90
31046;DHT22;17711;54.018;9.300;2022-09-06T03:38:22;16.40;99.90
31046;DHT22;17711;54.018;9.300;2022-09-06T03:40:51;16.40;99.90
31046;DHT22;17711;54.018;9.300;2022-09-06T03:43:21;16.40;99.90
31046;DHT22;17711;54.018;9.300;2022-09-06T03:45:51;16.40;99.90
31046;DHT22;17711;54.018;9.300;2022-09-06T03:48:23;16.40;99.90
31046;DHT22;17711;54.018;9.300;2022-09-06T03:50:54;16.30;99.90
31046;DHT22;17711;54.018;9.300;2022-09-06T03:53:25;16.30;99.90
31046;DHT22;17711;54.018;9.300;2022-09-06T03:55:56;16.20;99.90
31046;DHT22;17711;54.018;9.300;2022-09-06T03:58:28;16.20;99.90
31046;DHT22;17711;54.018;9.300;2022-09-06T04:01:02;16.20;99.90
31046;DHT22;17711;54.018;9.300;2022-09-06T04:03:33;16.20;99.90
31046;DHT22;17711;54.018;9.300;2022-09-06T04:06:03;16.20;99.90
31046;DHT22;17711;54.018;9.300;2022-09-06T04:08:32;16.10;99.90
31046;DHT22;17711;54.018;9.300;2022-09-06T04:11:02;16.20;99.90
31046;DHT22;17711;54.018;9.300;2022-09-06T04:13:32;16.20;99.90
31046;DHT22;17711;54.018;9.300;2022-09-06T04:16:01;16.20;99.90
31046;DHT22;17711;54.018;9.300;2022-09-06T04:18:30;16.30;99.90
31046;DHT22;17711;54.018;9.300;2022-09-06T04:21:01;16.30;99.90
31046;DHT22;17711;54.018;9.300;2022-09-06T04:23:29;16.30;99.90
31046;DHT22;17711;54.018;9.300;2022-09-06T04:26:05;16.30;99.90
31046;DHT22;17711;54.018;9.300;2022-09-06T04:28:34;16.30;99.90
31046;DHT22;17711;54.018;9.300;2022-09-06T04:31:03;16.30;99.90
31046;DHT22;17711;54.018;9.300;2022-09-06T04:33:34;16.30;99.90
31046;DHT22;17711;54.018;9.300;2022-09-06T04:36:07;16.30;99.90
31046;DHT22;17711;54.018;9.300;2022-09-06T04:38:38;16.20;99.90
31046;DHT22;17711;54.018;9.300;2022-09-06T04:41:08;16.20;99.90
31046;DHT22;17711;54.018;9.300;2022-09-06T04:43:37;16.10;99.90
31046;DHT22;17711;54.018;9.300;2022-09-06T04:46:08;16.20;99.90
31046;DHT22;17711;54.018;9.300;2022-09-06T04:48:38;16.10;99.90
31046;DHT22;17711;54.018;9.300;2022-09-06T04:51:08;16.10;99.90
31046;DHT22;17711;54.018;9.300;2022-09-06T04:53:37;16.10;99.90
31046;DHT22;17711;54.018;9.300;2022-09-06T04:56:06;16.10;99.90
31046;DHT22;17711;54.018;9.300;2022-09-06T04:58:34;16.00;99.90
31046;DHT22;17711;54.018;9.300;2022-09-06T05:01:04;16.00;99.90
31046;DHT22;17711;54.018;9.300;2022-09-06T05:03:33;16.00;99.90
31046;DHT22;17711;54.018;9.300;2022-09-06T05:06:06;16.00;99.90
31046;DHT22;17711;54.018;9.300;2022-09-06T05:08:36;16.00;99.90
31046;DHT22;17711;54.018;9.300;2022-09-06T05:11:06;16.00;99.90
31046;DHT22;17711;54.018;9.300;2022-09-06T05:13:36;16.00;99.90
31046;DHT22;17711;54.018;9.300;2022-09-06T05:16:06;16.00;99.90
31046;DHT22;17711;54.018;9.300;2022-09-06T05:18:35;16.00;99.90
31046;DHT22;17711;54.018;9.300;2022-09-06T05:21:04;16.00;99.90
31046;DHT22;17711;54.018;9.300;2022-09-06T05:23:33;16.00;99.90
31046;DHT22;17711;54.018;9.300;2022-09-06T05:26:03;16.00;99.90
31046;DHT22;17711;54.018;9.300;2022-09-06T05:28:32;16.00;99.90
31046;DHT22;17711;54.018;9.300;2022-09-06T05:31:06;16.10;99.90
31046;DHT22;17711;54.018;9.300;2022-09-06T05:33:35;16.10;99.90
31046;DHT22;17711;54.018;9.300;2022-09-06T05:36:05;16.10;99.90
31046;DHT22;17711;54.018;9.300;2022-09-06T05:38:34;16.20;99.90
31046;DHT22;17711;54.018;9.300;2022-09-06T05:41:04;16.30;99.90
31046;DHT22;17711;54.018;9.300;2022-09-06T05:43:33;16.30;99.90
31046;DHT22;17711;54.018;9.300;2022-09-06T05:46:02;16.40;99.90
31046;DHT22;17711;54.018;9.300;2022-09-06T05:48:31;16.40;99.90
31046;DHT22;17711;54.018;9.300;2022-09-06T05:51:04;16.40;99.20
31046;DHT22;17711;54.018;9.300;2022-09-06T05:53:34;16.50;99.90
31046;DHT22;17711;54.018;9.300;2022-09-06T05:56:05;16.50;99.90
31046;DHT22;17711;54.018;9.300;2022-09-06T05:58:34;16.60;99.90
31046;DHT22;17711;54.018;9.300;2022-09-06T06:01:05;16.60;99.90
31046;DHT22;17711;54.018;9.300;2022-09-06T06:03:35;16.60;99.90
31046;DHT22;17711;54.018;9.300;2022-09-06T06:06:05;16.70;99.90
31046;DHT22;17711;54.018;9.300;2022-09-06T06:08:34;16.70;98.80
31046;DHT22;17711;54.018;9.300;2022-09-06T06:11:04;16.80;99.50
31046;DHT22;17711;54.018;9.300;2022-09-06T06:13:33;16.80;99.10
31046;DHT22;17711;54.018;9.300;2022-09-06T06:16:05;16.80;99.90
31046;DHT22;17711;54.018;9.300;2022-09-06T06:18:35;16.90;97.90
31046;DHT22;17711;54.018;9.300;2022-09-06T06:21:11;17.00;98.00
31046;DHT22;17711;54.018;9.300;2022-09-06T06:23:41;17.00;98.50
31046;DHT22;17711;54.018;9.300;2022-09-06T06:26:12;17.00;96.20
31046;DHT22;17711;54.018;9.300;2022-09-06T06:28:41;17.10;96.60
31046;DHT22;17711;54.018;9.300;2022-09-06T06:31:10;17.10;96.20
31046;DHT22;17711;54.018;9.300;2022-09-06T06:33:40;17.20;95.50
31046;DHT22;17711;54.018;9.300;2022-09-06T06:36:19;17.20;98.20
31046;DHT22;17711;54.018;9.300;2022-09-06T06:38:49;17.30;94.40
31046;DHT22;17711;54.018;9.300;2022-09-06T06:41:21;17.30;93.20
31046;DHT22;17711;54.018;9.300;2022-09-06T06:43:51;17.40;93.70
31046;DHT22;17711;54.018;9.300;2022-09-06T06:46:22;17.40;95.00
31046;DHT22;17711;54.018;9.300;2022-09-06T06:48:53;17.50;93.70
31046;DHT22;17711;54.018;9.300;2022-09-06T06:51:29;17.50;97.30
31046;DHT22;17711;54.018;9.300;2022-09-06T06:54:03;17.50;92.20
31046;DHT22;17711;54.018;9.300;2022-09-06T06:56:39;17.60;92.90
31046;DHT22;17711;54.018;9.300;2022-09-06T06:59:14;17.70;93.60
31046;DHT22;17711;54.018;9.300;2022-09-06T07:01:47;17.70;91.40
31046;DHT22;17711;54.018;9.300;2022-09-06T07:04:21;17.70;92.40
31046;DHT22;17711;54.018;9.300;2022-09-06T07:06:55;17.80;90.00
31046;DHT22;17711;54.018;9.300;2022-09-06T07:09:47;17.90;90.20
31046;DHT22;17711;54.018;9.300;2022-09-06T07:12:42;17.90;91.60
31046;DHT22;17711;54.018;9.300;2022-09-06T07:15:15;18.00;89.90
31046;DHT22;17711;54.018;9.300;2022-09-06T07:17:49;18.10;92.90
31046;DHT22;17711;54.018;9.300;2022-09-06T07:20:22;18.20;89.30
31046;DHT22;17711;54.018;9.300;2022-09-06T07:22:58;18.30;91.30
31046;DHT22;17711;54.018;9.300;2022-09-06T07:25:47;18.40;92.30
31046;DHT22;17711;54.018;9.300;2022-09-06T07:28:17;18.50;88.10
31046;DHT22;17711;54.018;9.300;2022-09-06T07:30:46;18.60;86.70
31046;DHT22;17711;54.018;9.300;2022-09-06T07:33:15;18.70;86.30
31046;DHT22;17711;54.018;9.300;2022-09-06T07:35:54;18.70;86.00
31046;DHT22;17711;54.018;9.300;2022-09-06T07:38:23;18.80;90.50
31046;DHT22;17711;54.018;9.300;2022-09-06T07:40:53;18.90;83.70
31046;DHT22;17711;54.018;9.300;2022-09-06T07:43:24;19.00;87.10
31046;DHT22;17711;54.018;9.300;2022-09-06T07:46:00;19.10;87.90
31046;DHT22;17711;54.018;9.300;2022-09-06T07:48:29;19.20;86.90
31046;DHT22;17711;54.018;9.300;2022-09-06T07:51:06;19.30;88.00
31046;DHT22;17711;54.018;9.300;2022-09-06T07:53:36;19.40;81.80
31046;DHT22;17711;54.018;9.300;2022-09-06T07:56:06;19.50;82.90
31046;DHT22;17711;54.018;9.300;2022-09-06T07:58:37;19.70;82.90
31046;DHT22;17711;54.018;9.300;2022-09-06T08:01:14;19.90;81.80
31046;DHT22;17711;54.018;9.300;2022-09-06T08:03:46;20.10;82.30
31046;DHT22;17711;54.018;9.300;2022-09-06T08:06:14;20.40;79.70
31046;DHT22;17711;54.018;9.300;2022-09-06T08:08:43;20.50;78.10
31046;DHT22;17711;54.018;9.300;2022-09-06T08:11:29;20.70;76.60
31046;DHT22;17711;54.018;9.300;2022-09-06T08:14:01;21.20;75.60
31046;DHT22;17711;54.018;9.300;2022-09-06T08:16:31;21.70;76.30
31046;DHT22;17711;54.018;9.300;2022-09-06T08:19:01;21.90;70.50
31046;DHT22;17711;54.018;9.300;2022-09-06T08:21:31;21.80;64.90
31046;DHT22;17711;54.018;9.300;2022-09-06T08:24:02;21.60;70.40
31046;DHT22;17711;54.018;9.300;2022-09-06T08:26:34;21.50;69.80
31046;DHT22;17711;54.018;9.300;2022-09-06T08:29:07;21.40;70.50
31046;DHT22;17711;54.018;9.300;2022-09-06T08:31:38;21.30;69.50
31046;DHT22;17711;54.018;9.300;2022-09-06T08:34:07;21.30;75.30
31046;DHT22;17711;54.018;9.300;2022-09-06T08:36:39;21.40;75.00
31046;DHT22;17711;54.018;9.300;2022-09-06T08:39:08;21.40;70.40
31046;DHT22;17711;54.018;9.300;2022-09-06T08:41:46;21.50;72.10
31046;DHT22;17711;54.018;9.300;2022-09-06T08:44:20;21.50;74.00
31046;DHT22;17711;54.018;9.300;2022-09-06T08:47:10;21.60;72.30
31046;DHT22;17711;54.018;9.300;2022-09-06T08:49:41;21.50;71.80
31046;DHT22;17711;54.018;9.300;2022-09-06T08:52:44;21.40;72.80
31046;DHT22;17711;54.018;9.300;2022-09-06T08:55:35;21.30;70.80
31046;DHT22;17711;54.018;9.300;2022-09-06T08:58:39;21.20;78.10
31046;DHT22;17711;54.018;9.300;2022-09-06T09:01:16;21.00;71.50
31046;DHT22;17711;54.018;9.300;2022-09-06T09:03:46;20.90;71.00
31046;DHT22;17711;54.018;9.300;2022-09-06T09:06:15;21.00;71.90
31046;DHT22;17711;54.018;9.300;2022-09-06T09:08:46;21.10;74.40
31046;DHT22;17711;54.018;9.300;2022-09-06T09:11:22;21.10;77.10
31046;DHT22;17711;54.018;9.300;2022-09-06T09:13:53;21.20;72.90
31046;DHT22;17711;54.018;9.300;2022-09-06T09:16:26;21.20;68.50
31046;DHT22;17711;54.018;9.300;2022-09-06T09:18:57;21.30;74.30
31046;DHT22;17711;54.018;9.300;2022-09-06T09:21:32;21.50;73.70
31046;DHT22;17711;54.018;9.300;2022-09-06T09:24:03;21.70;69.40
31046;DHT22;17711;54.018;9.300;2022-09-06T09:26:42;21.90;71.60
31046;DHT22;17711;54.018;9.300;2022-09-06T09:29:13;21.90;70.60
31046;DHT22;17711;54.018;9.300;2022-09-06T09:31:47;22.10;71.00
31046;DHT22;17711;54.018;9.300;2022-09-06T09:34:28;22.10;72.80
31046;DHT22;17711;54.018;9.300;2022-09-06T09:37:13;22.20;72.00
31046;DHT22;17711;54.018;9.300;2022-09-06T09:40:06;22.30;71.30
31046;DHT22;17711;54.018;9.300;2022-09-06T09:42:40;22.30;69.70
31046;DHT22;17711;54.018;9.300;2022-09-06T09:45:23;22.30;66.70
31046;DHT22;17711;54.018;9.300;2022-09-06T09:47:54;22.30;68.80
31046;DHT22;17711;54.018;9.300;2022-09-06T09:50:25;22.10;65.10
31046;DHT22;17711;54.018;9.300;2022-09-06T09:52:54;22.00;72.40
31046;DHT22;17711;54.018;9.300;2022-09-06T09:55:25;21.90;73.60
31046;DHT22;17711;54.018;9.300;2022-09-06T09:57:55;21.90;73.10
31046;DHT22;17711;54.018;9.300;2022-09-06T10:00:35;21.80;73.00
31046;DHT22;17711;54.018;9.300;2022-09-06T10:03:15;21.70;71.60
31046;DHT22;17711;54.018;9.300;2022-09-06T10:05:54;21.80;80.40
31046;DHT22;17711;54.018;9.300;2022-09-06T10:08:32;21.90;75.30
31046;DHT22;17711;54.018;9.300;2022-09-06T10:11:02;22.20;74.40
31046;DHT22;17711;54.018;9.300;2022-09-06T10:13:31;22.40;74.60
31046;DHT22;17711;54.018;9.300;2022-09-06T10:16:00;23.00;73.70
31046;DHT22;17711;54.018;9.300;2022-09-06T10:18:33;23.40;68.60
31046;DHT22;17711;54.018;9.300;2022-09-06T10:21:04;23.50;63.60
31046;DHT22;17711;54.018;9.300;2022-09-06T10:23:54;23.60;65.10
31046;DHT22;17711;54.018;9.300;2022-09-06T10:26:50;23.80;65.90
31046;DHT22;17711;54.018;9.300;2022-09-06T10:29:26;23.80;66.20
31046;DHT22;17711;54.018;9.300;2022-09-06T10:32:07;23.60;64.80
31046;DHT22;17711;54.018;9.300;2022-09-06T10:34:55;23.40;64.80
31046;DHT22;17711;54.018;9.300;2022-09-06T10:37:44;23.10;66.00
31046;DHT22;17711;54.018;9.300;2022-09-06T10:40:23;22.90;69.60
31046;DHT22;17711;54.018;9.300;2022-09-06T10:42:56;22.80;68.90
31046;DHT22;17711;54.018;9.300;2022-09-06T10:45:42;22.60;69.50
31046;DHT22;17711;54.018;9.300;2022-09-06T10:48:16;22.50;69.30
31046;DHT22;17711;54.018;9.300;2022-09-06T10:50:51;22.30;71.40
31046;DHT22;17711;54.018;9.300;2022-09-06T10:53:46;22.10;69.50
31046;DHT22;17711;54.018;9.300;2022-09-06T10:56:21;21.80;72.10
31046;DHT22;17711;54.018;9.300;2022-09-06T10:58:56;21.60;71.30
31046;DHT22;17711;54.018;9.300;2022-09-06T11:02:01;21.50;75.10
31046;DHT22;17711;54.018;9.300;2022-09-06T11:04:37;21.40;76.30
31046;DHT22;17711;54.018;9.300;2022-09-06T11:07:29;21.40;79.20
31046;DHT22;17711;54.018;9.300;2022-09-06T11:10:01;21.30;76.30
31046;DHT22;17711;54.018;9.300;2022-09-06T11:12:36;21.30;74.50
31046;DHT22;17711;54.018;9.300;2022-09-06T11:15:07;21.30;77.30
31046;DHT22;17711;54.018;9.300;2022-09-06T11:17:41;21.40;78.50
31046;DHT22;17711;54.018;9.300;2022-09-06T11:20:19;21.50;78.10
31046;DHT22;17711;54.018;9.300;2022-09-06T11:23:38;21.70;74.30
31046;DHT22;17711;54.018;9.300;2022-09-06T11:26:32;21.80;74.50
31046;DHT22;17711;54.018;9.300;2022-09-06T11:29:02;22.00;75.90
31046;DHT22;17711;54.018;9.300;2022-09-06T11:31:33;22.00;75.50
31046;DHT22;17711;54.018;9.300;2022-09-06T11:34:24;22.00;79.00
31046;DHT22;17711;54.018;9.300;2022-09-06T11:36:55;21.90;72.80
31046;DHT22;17711;54.018;9.300;2022-09-06T11:39:30;21.90;74.70
31046;DHT22;17711;54.018;9.300;2022-09-06T11:42:40;22.00;75.50
31046;DHT22;17711;54.018;9.300;2022-09-06T11:45:41;22.10;76.20
31046;DHT22;17711;54.018;9.300;2022-09-06T11:48:33;22.10;72.70
31046;DHT22;17711;54.018;9.300;2022-09-06T11:51:05;22.20;72.20
31046;DHT22;17711;54.018;9.300;2022-09-06T11:56:54;22.60;68.70
31046;DHT22;17711;54.018;9.300;2022-09-06T11:59:51;22.80;72.10
31046;DHT22;17711;54.018;9.300;2022-09-06T12:02:30;22.90;74.30
31046;DHT22;17711;54.018;9.300;2022-09-06T12:05:12;22.80;68.90
31046;DHT22;17711;54.018;9.300;2022-09-06T12:11:00;22.70;69.90
31046;DHT22;17711;54.018;9.300;2022-09-06T12:13:38;22.60;70.00
31046;DHT22;17711;54.018;9.300;2022-09-06T12:16:11;22.60;75.20
31046;DHT22;17711;54.018;9.300;2022-09-06T12:19:00;22.50;73.60
31046;DHT22;17711;54.018;9.300;2022-09-06T12:21:41;22.50;70.60
31046;DHT22;17711;54.018;9.300;2022-09-06T12:24:50;22.40;71.10
31046;DHT22;17711;54.018;9.300;2022-09-06T12:27:21;22.20;67.60
31046;DHT22;17711;54.018;9.300;2022-09-06T12:29:54;22.10;71.30
31046;DHT22;17711;54.018;9.300;2022-09-06T12:32:27;22.10;72.80
31046;DHT22;17711;54.018;9.300;2022-09-06T12:35:03;22.00;73.00
31046;DHT22;17711;54.018;9.300;2022-09-06T12:37:54;21.90;73.40
31046;DHT22;17711;54.018;9.300;2022-09-06T12:40:25;21.90;71.80
31046;DHT22;17711;54.018;9.300;2022-09-06T12:42:55;21.80;71.60
31046;DHT22;17711;54.018;9.300;2022-09-06T12:45:26;21.60;73.10
31046;DHT22;17711;54.018;9.300;2022-09-06T12:48:07;21.60;73.80
31046;DHT22;17711;54.018;9.300;2022-09-06T12:50:36;21.60;73.70
31046;DHT22;17711;54.018;9.300;2022-09-06T12:53:18;21.50;76.20
31046;DHT22;17711;54.018;9.300;2022-09-06T12:56:02;21.40;77.60
31046;DHT22;17711;54.018;9.300;2022-09-06T12:58:33;21.20;74.30
31046;DHT22;17711;54.018;9.300;2022-09-06T13:01:11;21.10;78.60
31046;DHT22;17711;54.018;9.300;2022-09-06T13:03:46;21.00;78.90
31046;DHT22;17711;54.018;9.300;2022-09-06T13:06:22;21.00;83.20
31046;DHT22;17711;54.018;9.300;2022-09-06T13:08:54;21.00;84.50
31046;DHT22;17711;54.018;9.300;2022-09-06T13:11:26;21.00;82.70
31046;DHT22;17711;54.018;9.300;2022-09-06T13:13:57;21.00;86.20
31046;DHT22;17711;54.018;9.300;2022-09-06T13:16:36;21.00;84.70
31046;DHT22;17711;54.018;9.300;2022-09-06T13:19:13;21.00;85.60
31046;DHT22;17711;54.018;9.300;2022-09-06T13:21:44;20.90;85.90
31046;DHT22;17711;54.018;9.300;2022-09-06T13:24:20;20.90;84.10
31046;DHT22;17711;54.018;9.300;2022-09-06T13:26:51;20.90;82.60
31046;DHT22;17711;54.018;9.300;2022-09-06T13:29:24;20.90;81.30
31046;DHT22;17711;54.018;9.300;2022-09-06T13:31:56;20.90;80.80
31046;DHT22;17711;54.018;9.300;2022-09-06T13:34:26;20.90;82.30
31046;DHT22;17711;54.018;9.300;2022-09-06T13:37:00;20.90;83.30
31046;DHT22;17711;54.018;9.300;2022-09-06T13:39:31;20.90;83.30
31046;DHT22;17711;54.018;9.300;2022-09-06T13:42:05;20.90;78.40
31046;DHT22;17711;54.018;9.300;2022-09-06T13:44:38;20.90;79.80
31046;DHT22;17711;54.018;9.300;2022-09-06T13:47:09;20.90;82.30
31046;DHT22;17711;54.018;9.300;2022-09-06T13:49:37;20.90;80.90
31046;DHT22;17711;54.018;9.300;2022-09-06T13:52:06;20.90;82.70
31046;DHT22;17711;54.018;9.300;2022-09-06T13:54:35;20.80;81.80
31046;DHT22;17711;54.018;9.300;2022-09-06T13:57:05;20.80;85.30
31046;DHT22;17711;54.018;9.300;2022-09-06T13:59:35;20.80;84.40
31046;DHT22;17711;54.018;9.300;2022-09-06T14:02:08;20.80;86.20
31046;DHT22;17711;54.018;9.300;2022-09-06T14:04:37;20.70;86.80
31046;DHT22;17711;54.018;9.300;2022-09-06T14:07:06;20.60;90.50
31046;DHT22;17711;54.018;9.300;2022-09-06T14:09:35;20.50;94.70
31046;DHT22;17711;54.018;9.300;2022-09-06T14:12:05;20.40;95.30
31046;DHT22;17711;54.018;9.300;2022-09-06T14:14:35;20.40;98.40
31046;DHT22;17711;54.018;9.300;2022-09-06T14:17:04;20.40;98.90
31046;DHT22;17711;54.018;9.300;2022-09-06T14:19:38;20.40;98.30
31046;DHT22;17711;54.018;9.300;2022-09-06T14:22:13;20.30;99.90
31046;DHT22;17711;54.018;9.300;2022-09-06T14:24:46;20.30;99.40
31046;DHT22;17711;54.018;9.300;2022-09-06T14:27:18;20.20;97.80
31046;DHT22;17711;54.018;9.300;2022-09-06T14:29:55;20.20;99.60
31046;DHT22;17711;54.018;9.300;2022-09-06T14:32:27;20.20;99.70
31046;DHT22;17711;54.018;9.300;2022-09-06T14:35:01;20.20;98.80
31046;DHT22;17711;54.018;9.300;2022-09-06T14:37:33;20.20;99.60
31046;DHT22;17711;54.018;9.300;2022-09-06T14:40:10;20.10;97.80
31046;DHT22;17711;54.018;9.300;2022-09-06T14:42:39;20.10;97.20
31046;DHT22;17711;54.018;9.300;2022-09-06T14:45:14;20.10;93.90
31046;DHT22;17711;54.018;9.300;2022-09-06T14:47:46;20.10;94.90
31046;DHT22;17711;54.018;9.300;2022-09-06T14:50:24;20.10;96.50
31046;DHT22;17711;54.018;9.300;2022-09-06T14:52:56;20.10;95.90
31046;DHT22;17711;54.018;9.300;2022-09-06T14:55:25;20.00;95.60
31046;DHT22;17711;54.018;9.300;2022-09-06T14:57:58;20.00;96.30
31046;DHT22;17711;54.018;9.300;2022-09-06T15:00:30;20.00;97.80
31046;DHT22;17711;54.018;9.300;2022-09-06T15:03:02;20.00;97.70
31046;DHT22;17711;54.018;9.300;2022-09-06T15:05:34;20.00;95.10
31046;DHT22;17711;54.018;9.300;2022-09-06T15:08:06;20.10;96.40
31046;DHT22;17711;54.018;9.300;2022-09-06T15:10:38;20.20;93.70
31046;DHT22;17711;54.018;9.300;2022-09-06T15:13:09;20.30;94.50
31046;DHT22;17711;54.018;9.300;2022-09-06T15:15:39;20.30;94.30
31046;DHT22;17711;54.018;9.300;2022-09-06T15:18:08;20.40;94.80
31046;DHT22;17711;54.018;9.300;2022-09-06T15:20:42;20.50;94.30
31046;DHT22;17711;54.018;9.300;2022-09-06T15:23:13;20.60;93.80
31046;DHT22;17711;54.018;9.300;2022-09-06T15:25:52;20.70;93.90
31046;DHT22;17711;54.018;9.300;2022-09-06T15:28:25;20.80;93.80
31046;DHT22;17711;54.018;9.300;2022-09-06T15:30:54;20.90;93.90
31046;DHT22;17711;54.018;9.300;2022-09-06T15:33:31;21.00;92.60
31046;DHT22;17711;54.018;9.300;2022-09-06T15:36:07;21.20;91.30
31046;DHT22;17711;54.018;9.300;2022-09-06T15:38:40;21.30;91.30
31046;DHT22;17711;54.018;9.300;2022-09-06T15:41:11;21.40;93.00
31046;DHT22;17711;54.018;9.300;2022-09-06T15:43:43;21.50;91.80
31046;DHT22;17711;54.018;9.300;2022-09-06T15:46:28;21.50;90.20
31046;DHT22;17711;54.018;9.300;2022-09-06T15:49:17;21.70;92.10
31046;DHT22;17711;54.018;9.300;2022-09-06T15:52:05;21.80;90.00
31046;DHT22;17711;54.018;9.300;2022-09-06T15:55:35;21.90;90.50
31046;DHT22;17711;54.018;9.300;2022-09-06T15:58:25;22.20;84.10
31046;DHT22;17711;54.018;9.300;2022-09-06T16:01:06;22.60;84.80
31046;DHT22;17711;54.018;9.300;2022-09-06T16:03:37;22.80;80.80
31046;DHT22;17711;54.018;9.300;2022-09-06T16:06:08;22.90;75.00
31046;DHT22;17711;54.018;9.300;2022-09-06T16:08:57;23.00;81.60
31046;DHT22;17711;54.018;9.300;2022-09-06T16:11:28;22.90;77.40
31046;DHT22;17711;54.018;9.300;2022-09-06T16:13:58;22.80;74.60
31046;DHT22;17711;54.018;9.300;2022-09-06T16:16:28;22.70;73.50
31046;DHT22;17711;54.018;9.300;2022-09-06T16:19:01;22.40;74.30
31046;DHT22;17711;54.018;9.300;2022-09-06T16:21:32;22.20;74.60
31046;DHT22;17711;54.018;9.300;2022-09-06T16:24:05;21.90;74.20